sensor_id;sensor_type;location;lat;lon;timestamp;pressure;altitude;pressure_sealevel;temperature;humidity
76124;BME280;65173;48.066;20.976;2023-05-07T00:02:38;100407.03;;;13.44;100.00
76124;BME280;65173;48.066;20.976;2023-05-07T00:05:42;100405.84;;;13.53;100.00
76124;BME280;65173;48.066;20.976;2023-05-07T00:08:45;100413.25;;;13.36;100.00
76124;BME280;65173;48.066;20.976;2023-05-07T00:11:48;100405.06;;;13.53;100.00
76124;BME280;65173;48.066;20.976;2023-05-07T00:14:50;100408.78;;;13.61;100.00
76124;BME280;65173;48.066;20.976;2023-05-07T00:17:54;100409.91;;;13.60;100.00
76124;BME280;65173;48.066;20.976;2023-05-07T00:20:57;100413.63;;;13.46;100.00
76124;BME280;65173;48.066;20.976;2023-05-07T00:23:59;100402.72;;;13.10;100.00
76124;BME280;65173;48.066;20.976;2023-05-07T00:27:02;100408.63;;;13.24;100.00
76124;BME280;65173;48.066;20.976;2023-05-07T00:30:06;100407.53;;;13.25;100.00
76124;BME280;65173;48.066;20.976;2023-05-07T00:33:08;100401.81;;;13.27;100.00
76124;BME280;65173;48.066;20.976;2023-05-07T00:36:12;100410.19;;;13.25;100.00
76124;BME280;65173;48.066;20.976;2023-05-07T00:39:14;100417.28;;;13.00;100.00
76124;BME280;65173;48.066;20.976;2023-05-07T00:42:17;100413.53;;;13.13;100.00
76124;BME280;65173;48.066;20.976;2023-05-07T00:45:20;100412.75;;;13.22;100.00
76124;BME280;65173;48.066;20.976;2023-05-07T00:48:23;100414.41;;;13.26;100.00
76124;BME280;65173;48.066;20.976;2023-05-07T00:51:27;100410.97;;;13.26;100.00
76124;BME280;65173;48.066;20.976;2023-05-07T00:54:30;100409.16;;;13.17;100.00
76124;BME280;65173;48.066;20.976;2023-05-07T00:57:36;100419.94;;;13.00;100.00
76124;BME280;65173;48.066;20.976;2023-05-07T01:00:40;100423.25;;;12.97;100.00
76124;BME280;65173;48.066;20.976;2023-05-07T01:03:43;100423.91;;;12.94;100.00
76124;BME280;65173;48.066;20.976;2023-05-07T01:06:47;100425.53;;;12.86;100.00
76124;BME280;65173;48.066;20.976;2023-05-07T01:09:50;100421.75;;;12.88;100.00
76124;BME280;65173;48.066;20.976;2023-05-07T01:12:53;100435.03;;;12.75;100.00
76124;BME280;65173;48.066;20.976;2023-05-07T01:15:56;100432.97;;;12.81;100.00
76124;BME280;65173;48.066;20.976;2023-05-07T01:19:00;100442.50;;;12.91;100.00
76124;BME280;65173;48.066;20.976;2023-05-07T01:22:08;100427.44;;;12.86;100.00
76124;BME280;65173;48.066;20.976;2023-05-07T01:25:20;100440.94;;;12.90;100.00
76124;BME280;65173;48.066;20.976;2023-05-07T01:28:27;100444.06;;;12.92;100.00
76124;BME280;65173;48.066;20.976;2023-05-07T01:31:34;100443.09;;;12.96;100.00
76124;BME280;65173;48.066;20.976;2023-05-07T01:34:39;100433.31;;;13.00;100.00
76124;BME280;65173;48.066;20.976;2023-05-07T01:37:42;100433.34;;;12.71;100.00
76124;BME280;65173;48.066;20.976;2023-05-07T01:40:45;100424.81;;;12.77;100.00
76124;BME280;65173;48.066;20.976;2023-05-07T01:43:50;100432.13;;;12.60;100.00
76124;BME280;65173;48.066;20.976;2023-05-07T01:46:54;100437.78;;;12.58;100.00
76124;BME280;65173;48.066;20.976;2023-05-07T01:49:57;100443.16;;;12.58;100.00
76124;BME280;65173;48.066;20.976;2023-05-07T01:53:01;100441.16;;;12.76;100.00
76124;BME280;65173;48.066;20.976;2023-05-07T01:56:05;100442.00;;;12.68;100.00
76124;BME280;65173;48.066;20.976;2023-05-07T01:59:09;100441.31;;;12.79;100.00
76124;BME280;65173;48.066;20.976;2023-05-07T02:02:12;100434.69;;;12.85;100.00
76124;BME280;65173;48.066;20.976;2023-05-07T02:05:17;100442.50;;;12.91;100.00
76124;BME280;65173;48.066;20.976;2023-05-07T02:08:24;100434.09;;;13.01;100.00
76124;BME280;65173;48.066;20.976;2023-05-07T02:11:27;100430.78;;;13.04;100.00
76124;BME280;65173;48.066;20.976;2023-05-07T02:14:30;100418.69;;;12.98;100.00
76124;BME280;65173;48.066;20.976;2023-05-07T02:17:33;100425.94;;;12.97;100.00
76124;BME280;65173;48.066;20.976;2023-05-07T02:20:36;100418.84;;;13.01;100.00
76124;BME280;65173;48.066;20.976;2023-05-07T02:23:39;100413.63;;;13.05;100.00
76124;BME280;65173;48.066;20.976;2023-05-07T02:26:42;100414.34;;;13.14;100.00
76124;BME280;65173;48.066;20.976;2023-05-07T02:29:45;100411.63;;;13.23;100.00
76124;BME280;65173;48.066;20.976;2023-05-07T02:32:48;100414.19;;;13.19;100.00
76124;BME280;65173;48.066;20.976;2023-05-07T02:35:51;100411.50;;;13.19;100.00
76124;BME280;65173;48.066;20.976;2023-05-07T02:38:55;100414.19;;;13.19;100.00
76124;BME280;65173;48.066;20.976;2023-05-07T02:41:57;100410.06;;;13.22;100.00
76124;BME280;65173;48.066;20.976;2023-05-07T02:45:00;100408.69;;;13.15;100.00
76124;BME280;65173;48.066;20.976;2023-05-07T02:48:05;100398.47;;;13.09;100.00
76124;BME280;65173;48.066;20.976;2023-05-07T02:51:09;100401.91;;;13.09;100.00
76124;BME280;65173;48.066;20.976;2023-05-07T02:54:14;100397.38;;;12.89;100.00
76124;BME280;65173;48.066;20.976;2023-05-07T02:57:17;100405.19;;;12.94;100.00
76124;BME280;65173;48.066;20.976;2023-05-07T03:00:20;100406.75;;;12.95;100.00
76124;BME280;65173;48.066;20.976;2023-05-07T03:03:30;100409.75;;;12.94;100.00
76124;BME280;65173;48.066;20.976;2023-05-07T03:06:33;100403.16;;;12.91;100.00
76124;BME280;65173;48.066;20.976;2023-05-07T03:09:36;100408.38;;;12.88;100.00
76124;BME280;65173;48.066;20.976;2023-05-07T03:12:39;100419.97;;;12.71;100.00
76124;BME280;65173;48.066;20.976;2023-05-07T03:15:42;100422.28;;;12.51;100.00
76124;BME280;65173;48.066;20.976;2023-05-07T03:18:45;100428.19;;;12.28;100.00
76124;BME280;65173;48.066;20.976;2023-05-07T03:21:48;100422.19;;;12.31;100.00
76124;BME280;65173;48.066;20.976;2023-05-07T03:24:51;100425.81;;;12.26;100.00
76124;BME280;65173;48.066;20.976;2023-05-07T03:27:54;100425.03;;;12.26;100.00
76124;BME280;65173;48.066;20.976;2023-05-07T03:31:00;100425.97;;;12.30;100.00
76124;BME280;65173;48.066;20.976;2023-05-07T03:34:05;100432.28;;;12.25;100.00
76124;BME280;65173;48.066;20.976;2023-05-07T03:37:07;100434.16;;;12.33;100.00
76124;BME280;65173;48.066;20.976;2023-05-07T03:40:11;100428.91;;;12.45;100.00
76124;BME280;65173;48.066;20.976;2023-05-07T03:43:22;100439.53;;;12.54;100.00
76124;BME280;65173;48.066;20.976;2023-05-07T03:46:33;100437.31;;;12.56;100.00
76124;BME280;65173;48.066;20.976;2023-05-07T03:49:36;100445.63;;;12.72;100.00
76124;BME280;65173;48.066;20.976;2023-05-07T03:52:40;100453.75;;;12.75;100.00
76124;BME280;65173;48.066;20.976;2023-05-07T03:55:44;100453.75;;;12.75;100.00
76124;BME280;65173;48.066;20.976;2023-05-07T03:58:47;100457.81;;;12.81;100.00
76124;BME280;65173;48.066;20.976;2023-05-07T04:01:50;100460.19;;;12.83;100.00
76124;BME280;65173;48.066;20.976;2023-05-07T04:04:56;100466.31;;;12.83;100.00
76124;BME280;65173;48.066;20.976;2023-05-07T04:08:00;100462.00;;;12.91;100.00
76124;BME280;65173;48.066;20.976;2023-05-07T04:11:11;100463.88;;;12.70;100.00
76124;BME280;65173;48.066;20.976;2023-05-07T04:14:13;100477.50;;;12.39;100.00
76124;BME280;65173;48.066;20.976;2023-05-07T04:17:16;100476.00;;;12.12;100.00
76124;BME280;65173;48.066;20.976;2023-05-07T04:20:19;100485.25;;;12.23;100.00
76124;BME280;65173;48.066;20.976;2023-05-07T04:23:27;100489.91;;;12.43;100.00
76124;BME280;65173;48.066;20.976;2023-05-07T04:26:32;100490.03;;;12.56;100.00
76124;BME280;65173;48.066;20.976;2023-05-07T04:29:35;100493.06;;;12.83;100.00
76124;BME280;65173;48.066;20.976;2023-05-07T04:32:38;100500.69;;;13.02;100.00
76124;BME280;65173;48.066;20.976;2023-05-07T04:35:41;100501.06;;;13.22;100.00
76124;BME280;65173;48.066;20.976;2023-05-07T04:38:44;100511.38;;;13.32;100.00
76124;BME280;65173;48.066;20.976;2023-05-07T04:41:53;100509.22;;;13.46;100.00
76124;BME280;65173;48.066;20.976;2023-05-07T04:44:56;100524.75;;;13.61;100.00
76124;BME280;65173;48.066;20.976;2023-05-07T04:47:59;100527.00;;;13.71;100.00
76124;BME280;65173;48.066;20.976;2023-05-07T04:51:03;100530.00;;;13.90;100.00
76124;BME280;65173;48.066;20.976;2023-05-07T04:54:06;100538.41;;;14.01;100.00
76124;BME280;65173;48.066;20.976;2023-05-07T04:57:09;100539.78;;;14.07;100.00
76124;BME280;65173;48.066;20.976;2023-05-07T05:00:12;100539.75;;;14.28;100.00
76124;BME280;65173;48.066;20.976;2023-05-07T05:03:20;100538.97;;;14.61;100.00
76124;BME280;65173;48.066;20.976;2023-05-07T05:06:23;100549.50;;;14.78;100.00
76124;BME280;65173;48.066;20.976;2023-05-07T05:09:27;100543.91;;;14.83;100.00
76124;BME280;65173;48.066;20.976;2023-05-07T05:12:31;100549.88;;;14.43;100.00
76124;BME280;65173;48.066;20.976;2023-05-07T05:15:35;100552.50;;;14.64;100.00
76124;BME280;65173;48.066;20.976;2023-05-07T05:18:39;100549.03;;;14.88;100.00
76124;BME280;65173;48.066;20.976;2023-05-07T05:21:42;100552.09;;;14.86;100.00
76124;BME280;65173;48.066;20.976;2023-05-07T05:24:47;100547.72;;;15.18;99.55
76124;BME280;65173;48.066;20.976;2023-05-07T05:27:50;100561.78;;;15.27;99.53
76124;BME280;65173;48.066;20.976;2023-05-07T05:30:53;100566.69;;;15.62;98.82
76124;BME280;65173;48.066;20.976;2023-05-07T05:33:58;100568.38;;;15.54;99.04
76124;BME280;65173;48.066;20.976;2023-05-07T05:37:00;100569.81;;;15.64;98.93
76124;BME280;65173;48.066;20.976;2023-05-07T05:40:04;100570.38;;;15.70;99.88
76124;BME280;65173;48.066;20.976;2023-05-07T05:43:07;100556.19;;;15.45;99.30
76124;BME280;65173;48.066;20.976;2023-05-07T05:46:12;100564.91;;;15.54;100.00
76124;BME280;65173;48.066;20.976;2023-05-07T05:49:16;100568.84;;;15.32;100.00
76124;BME280;65173;48.066;20.976;2023-05-07T05:52:18;100562.19;;;16.06;99.68
76124;BME280;65173;48.066;20.976;2023-05-07T05:55:22;100563.94;;;16.42;97.59
76124;BME280;65173;48.066;20.976;2023-05-07T05:58:25;100573.69;;;16.62;94.78
76124;BME280;65173;48.066;20.976;2023-05-07T06:01:33;100563.22;;;16.73;96.81
76124;BME280;65173;48.066;20.976;2023-05-07T06:04:38;100569.81;;;17.07;94.56
76124;BME280;65173;48.066;20.976;2023-05-07T06:07:42;100565.66;;;17.45;92.44
76124;BME280;65173;48.066;20.976;2023-05-07T06:10:45;100569.78;;;17.58;87.82
76124;BME280;65173;48.066;20.976;2023-05-07T06:13:49;100560.06;;;17.88;88.56
76124;BME280;65173;48.066;20.976;2023-05-07T06:16:51;100563.47;;;17.85;88.84
76124;BME280;65173;48.066;20.976;2023-05-07T06:19:54;100567.56;;;17.79;87.73
76124;BME280;65173;48.066;20.976;2023-05-07T06:22:57;100567.16;;;17.96;90.52
76124;BME280;65173;48.066;20.976;2023-05-07T06:26:01;100575.38;;;18.23;88.53
76124;BME280;65173;48.066;20.976;2023-05-07T06:29:09;100568.75;;;18.39;85.65
76124;BME280;65173;48.066;20.976;2023-05-07T06:32:14;100564.72;;;18.30;84.84
76124;BME280;65173;48.066;20.976;2023-05-07T06:35:19;100564.91;;;18.60;84.54
76124;BME280;65173;48.066;20.976;2023-05-07T06:38:22;100559.31;;;18.72;80.74
76124;BME280;65173;48.066;20.976;2023-05-07T06:41:25;100560.81;;;18.27;82.94
76124;BME280;65173;48.066;20.976;2023-05-07T06:44:30;100553.22;;;17.75;84.26
76124;BME280;65173;48.066;20.976;2023-05-07T06:47:39;100557.03;;;18.32;82.58
76124;BME280;65173;48.066;20.976;2023-05-07T06:50:42;100567.63;;;19.35;81.32
76124;BME280;65173;48.066;20.976;2023-05-07T06:53:46;100562.72;;;19.18;78.83
76124;BME280;65173;48.066;20.976;2023-05-07T06:56:49;100568.50;;;18.67;75.66
76124;BME280;65173;48.066;20.976;2023-05-07T06:59:52;100565.56;;;18.76;75.08
76124;BME280;65173;48.066;20.976;2023-05-07T07:02:56;100568.81;;;19.12;76.76
76124;BME280;65173;48.066;20.976;2023-05-07T07:06:03;100565.63;;;19.89;75.60
76124;BME280;65173;48.066;20.976;2023-05-07T07:09:05;100569.41;;;19.81;72.46
76124;BME280;65173;48.066;20.976;2023-05-07T07:12:08;100562.69;;;19.41;75.12
76124;BME280;65173;48.066;20.976;2023-05-07T07:15:13;100571.63;;;19.45;75.13
76124;BME280;65173;48.066;20.976;2023-05-07T07:18:16;100569.16;;;20.63;73.00
76124;BME280;65173;48.066;20.976;2023-05-07T07:21:22;100572.66;;;20.64;68.42
76124;BME280;65173;48.066;20.976;2023-05-07T07:24:25;100563.47;;;20.75;68.64
76124;BME280;65173;48.066;20.976;2023-05-07T07:27:33;100565.34;;;20.68;67.15
76124;BME280;65173;48.066;20.976;2023-05-07T07:30:36;100575.97;;;20.91;67.29
76124;BME280;65173;48.066;20.976;2023-05-07T07:33:39;100574.84;;;20.51;63.05
76124;BME280;65173;48.066;20.976;2023-05-07T07:36:42;100564.50;;;20.27;69.20
76124;BME280;65173;48.066;20.976;2023-05-07T07:39:51;100572.09;;;20.88;68.59
76124;BME280;65173;48.066;20.976;2023-05-07T07:42:56;100569.03;;;21.48;66.31
76124;BME280;65173;48.066;20.976;2023-05-07T07:46:00;100568.13;;;20.75;66.58
76124;BME280;65173;48.066;20.976;2023-05-07T07:49:03;100566.25;;;21.37;64.90
76124;BME280;65173;48.066;20.976;2023-05-07T07:52:07;100565.25;;;21.67;65.90
76124;BME280;65173;48.066;20.976;2023-05-07T07:55:11;100571.59;;;21.23;64.60
76124;BME280;65173;48.066;20.976;2023-05-07T07:58:15;100560.53;;;22.82;62.15
76124;BME280;65173;48.066;20.976;2023-05-07T08:01:18;100565.75;;;21.97;65.93
76124;BME280;65173;48.066;20.976;2023-05-07T08:04:22;100563.38;;;23.95;59.74
76124;BME280;65173;48.066;20.976;2023-05-07T08:07:25;100565.81;;;23.71;55.62
76124;BME280;65173;48.066;20.976;2023-05-07T08:10:28;100559.19;;;23.69;57.60
76124;BME280;65173;48.066;20.976;2023-05-07T08:13:38;100560.22;;;24.66;56.11
76124;BME280;65173;48.066;20.976;2023-05-07T08:16:42;100561.72;;;24.74;53.63
76124;BME280;65173;48.066;20.976;2023-05-07T08:19:44;100556.56;;;22.41;59.11
76124;BME280;65173;48.066;20.976;2023-05-07T08:22:49;100554.63;;;23.34;58.65
76124;BME280;65173;48.066;20.976;2023-05-07T08:25:53;100565.06;;;23.49;55.73
76124;BME280;65173;48.066;20.976;2023-05-07T08:28:56;100558.81;;;23.70;57.31
76124;BME280;65173;48.066;20.976;2023-05-07T08:31:59;100561.91;;;23.72;57.72
76124;BME280;65173;48.066;20.976;2023-05-07T08:35:02;100554.66;;;22.45;59.36
76124;BME280;65173;48.066;20.976;2023-05-07T08:38:05;100551.09;;;23.54;59.40
76124;BME280;65173;48.066;20.976;2023-05-07T08:41:10;100551.47;;;24.88;52.59
76124;BME280;65173;48.066;20.976;2023-05-07T08:44:16;100560.81;;;23.45;58.32
76124;BME280;65173;48.066;20.976;2023-05-07T08:47:22;100551.19;;;24.24;55.30
76124;BME280;65173;48.066;20.976;2023-05-07T08:50:29;100545.34;;;25.22;51.30
76124;BME280;65173;48.066;20.976;2023-05-07T08:53:33;100547.56;;;24.89;51.70
76124;BME280;65173;48.066;20.976;2023-05-07T08:56:36;100556.06;;;23.77;54.23
76124;BME280;65173;48.066;20.976;2023-05-07T08:59:40;100548.38;;;25.65;52.78
76124;BME280;65173;48.066;20.976;2023-05-07T09:02:43;100560.41;;;24.41;51.08
76124;BME280;65173;48.066;20.976;2023-05-07T09:05:46;100559.19;;;25.38;50.41
76124;BME280;65173;48.066;20.976;2023-05-07T09:08:53;100558.91;;;25.97;51.22
76124;BME280;65173;48.066;20.976;2023-05-07T09:11:59;100553.94;;;26.46;51.54
76124;BME280;65173;48.066;20.976;2023-05-07T09:15:06;100543.72;;;24.83;49.91
76124;BME280;65173;48.066;20.976;2023-05-07T09:18:10;100539.50;;;26.45;48.40
76124;BME280;65173;48.066;20.976;2023-05-07T09:21:17;100536.06;;;25.50;47.36
76124;BME280;65173;48.066;20.976;2023-05-07T09:24:23;100545.88;;;26.35;49.23
76124;BME280;65173;48.066;20.976;2023-05-07T09:27:26;100542.66;;;26.67;48.88
76124;BME280;65173;48.066;20.976;2023-05-07T09:30:31;100545.59;;;25.69;51.14
76124;BME280;65173;48.066;20.976;2023-05-07T09:33:37;100538.38;;;25.51;50.21
76124;BME280;65173;48.066;20.976;2023-05-07T09:36:40;100538.81;;;25.09;51.98
76124;BME280;65173;48.066;20.976;2023-05-07T09:39:48;100541.31;;;27.02;48.69
76124;BME280;65173;48.066;20.976;2023-05-07T09:42:55;100535.97;;;26.91;47.94
76124;BME280;65173;48.066;20.976;2023-05-07T09:46:02;100529.88;;;27.27;48.17
76124;BME280;65173;48.066;20.976;2023-05-07T09:49:07;100533.69;;;27.33;47.75
76124;BME280;65173;48.066;20.976;2023-05-07T09:52:13;100537.91;;;26.94;47.54
76124;BME280;65173;48.066;20.976;2023-05-07T09:55:23;100531.75;;;26.40;48.78
76124;BME280;65173;48.066;20.976;2023-05-07T09:58:27;100528.94;;;25.90;49.99
76124;BME280;65173;48.066;20.976;2023-05-07T10:01:31;100531.25;;;26.49;48.73
76124;BME280;65173;48.066;20.976;2023-05-07T10:04:35;100530.81;;;26.23;47.00
76124;BME280;65173;48.066;20.976;2023-05-07T10:07:40;100529.53;;;27.64;46.17
76124;BME280;65173;48.066;20.976;2023-05-07T10:10:45;100520.22;;;26.76;49.12
76124;BME280;65173;48.066;20.976;2023-05-07T10:13:52;100517.56;;;26.95;47.81
76124;BME280;65173;48.066;20.976;2023-05-07T10:16:55;100518.56;;;28.37;44.34
76124;BME280;65173;48.066;20.976;2023-05-07T10:20:00;100511.75;;;28.09;46.13
76124;BME280;65173;48.066;20.976;2023-05-07T10:23:08;100510.97;;;28.08;44.97
76124;BME280;65173;48.066;20.976;2023-05-07T10:26:20;100505.59;;;27.69;47.92
76124;BME280;65173;48.066;20.976;2023-05-07T10:32:40;100515.66;;;26.46;47.36
76124;BME280;65173;48.066;20.976;2023-05-07T10:35:50;100514.28;;;26.81;49.86
76124;BME280;65173;48.066;20.976;2023-05-07T10:38:53;100502.63;;;26.53;45.25
76124;BME280;65173;48.066;20.976;2023-05-07T10:41:57;100512.16;;;28.27;41.25
76124;BME280;65173;48.066;20.976;2023-05-07T10:45:14;100506.22;;;28.61;41.91
76124;BME280;65173;48.066;20.976;2023-05-07T10:48:21;100504.75;;;27.32;44.37
76124;BME280;65173;48.066;20.976;2023-05-07T10:51:41;100498.63;;;25.81;47.56
76124;BME280;65173;48.066;20.976;2023-05-07T10:58:40;100481.63;;;24.57;51.33
76124;BME280;65173;48.066;20.976;2023-05-07T11:01:59;100485.78;;;23.62;52.86
76124;BME280;65173;48.066;20.976;2023-05-07T11:05:22;100490.84;;;23.52;53.14
76124;BME280;65173;48.066;20.976;2023-05-07T11:08:58;100484.00;;;22.95;53.26
76124;BME280;65173;48.066;20.976;2023-05-07T11:12:10;100477.53;;;23.72;53.81
76124;BME280;65173;48.066;20.976;2023-05-07T11:15:53;100469.56;;;26.48;46.67
76124;BME280;65173;48.066;20.976;2023-05-07T11:19:11;100472.00;;;25.58;47.98
76124;BME280;65173;48.066;20.976;2023-05-07T11:22:47;100471.06;;;27.15;44.96
76124;BME280;65173;48.066;20.976;2023-05-07T11:25:50;100466.41;;;26.49;45.57
76124;BME280;65173;48.066;20.976;2023-05-07T11:28:57;100469.28;;;27.45;44.35
76124;BME280;65173;48.066;20.976;2023-05-07T11:32:02;100472.47;;;27.04;41.62
76124;BME280;65173;48.066;20.976;2023-05-07T11:35:11;100467.44;;;27.22;46.56
76124;BME280;65173;48.066;20.976;2023-05-07T11:38:15;100473.59;;;25.25;46.73
76124;BME280;65173;48.066;20.976;2023-05-07T11:41:19;100474.00;;;25.54;46.98
76124;BME280;65173;48.066;20.976;2023-05-07T11:44:24;100473.19;;;26.14;45.31
76124;BME280;65173;48.066;20.976;2023-05-07T11:47:30;100472.94;;;26.32;46.26
76124;BME280;65173;48.066;20.976;2023-05-07T11:50:33;100474.56;;;27.55;45.18
76124;BME280;65173;48.066;20.976;2023-05-07T11:53:37;100473.13;;;28.03;43.84
76124;BME280;65173;48.066;20.976;2023-05-07T11:56:40;100471.72;;;27.23;43.31
76124;BME280;65173;48.066;20.976;2023-05-07T11:59:43;100472.88;;;26.59;44.21
76124;BME280;65173;48.066;20.976;2023-05-07T12:02:52;100472.88;;;25.82;44.64
76124;BME280;65173;48.066;20.976;2023-05-07T12:05:55;100468.13;;;26.63;45.31
76124;BME280;65173;48.066;20.976;2023-05-07T12:08:58;100448.38;;;25.14;46.01
76124;BME280;65173;48.066;20.976;2023-05-07T12:12:04;100444.19;;;25.06;46.61
76124;BME280;65173;48.066;20.976;2023-05-07T12:15:07;100437.69;;;25.57;47.47
76124;BME280;65173;48.066;20.976;2023-05-07T12:18:11;100427.34;;;26.49;44.08
76124;BME280;65173;48.066;20.976;2023-05-07T12:21:14;100431.53;;;26.77;44.34
76124;BME280;65173;48.066;20.976;2023-05-07T12:24:19;100429.47;;;27.60;42.21
76124;BME280;65173;48.066;20.976;2023-05-07T12:27:25;100420.97;;;27.18;43.05
76124;BME280;65173;48.066;20.976;2023-05-07T12:30:27;100424.78;;;26.61;44.30
76124;BME280;65173;48.066;20.976;2023-05-07T12:33:31;100426.75;;;26.38;44.62
76124;BME280;65173;48.066;20.976;2023-05-07T12:36:38;100431.38;;;25.64;45.19
76124;BME280;65173;48.066;20.976;2023-05-07T12:39:48;100428.50;;;26.24;45.74
76124;BME280;65173;48.066;20.976;2023-05-07T12:42:53;100424.16;;;26.31;45.51
76124;BME280;65173;48.066;20.976;2023-05-07T12:46:06;100425.78;;;26.91;48.83
76124;BME280;65173;48.066;20.976;2023-05-07T12:49:10;100418.19;;;26.59;43.73
76124;BME280;65173;48.066;20.976;2023-05-07T12:52:13;100428.25;;;27.05;43.79
76124;BME280;65173;48.066;20.976;2023-05-07T12:55:16;100429.38;;;25.68;43.88
76124;BME280;65173;48.066;20.976;2023-05-07T12:58:20;100433.34;;;25.33;44.91
76124;BME280;65173;48.066;20.976;2023-05-07T13:01:28;100437.25;;;24.98;48.54
76124;BME280;65173;48.066;20.976;2023-05-07T13:04:32;100429.13;;;25.85;46.22
76124;BME280;65173;48.066;20.976;2023-05-07T13:07:36;100441.69;;;25.49;48.13
76124;BME280;65173;48.066;20.976;2023-05-07T13:10:39;100467.06;;;25.46;47.35
76124;BME280;65173;48.066;20.976;2023-05-07T13:13:42;100476.63;;;24.52;44.15
76124;BME280;65173;48.066;20.976;2023-05-07T13:16:45;100478.47;;;23.30;48.24
76124;BME280;65173;48.066;20.976;2023-05-07T13:19:48;100475.88;;;22.16;49.75
76124;BME280;65173;48.066;20.976;2023-05-07T13:22:51;100504.53;;;21.13;52.62
76124;BME280;65173;48.066;20.976;2023-05-07T13:25:54;100490.56;;;20.56;53.81
76124;BME280;65173;48.066;20.976;2023-05-07T13:28:57;100490.84;;;20.07;55.83
76124;BME280;65173;48.066;20.976;2023-05-07T13:31:59;100491.88;;;20.32;56.38
76124;BME280;65173;48.066;20.976;2023-05-07T13:35:02;100485.22;;;21.22;56.00
76124;BME280;65173;48.066;20.976;2023-05-07T13:38:05;100487.88;;;20.56;57.56
76124;BME280;65173;48.066;20.976;2023-05-07T13:41:08;100495.09;;;19.71;57.43
76124;BME280;65173;48.066;20.976;2023-05-07T13:44:11;100486.94;;;19.37;58.65
76124;BME280;65173;48.066;20.976;2023-05-07T13:47:14;100500.09;;;19.39;59.65
76124;BME280;65173;48.066;20.976;2023-05-07T13:50:17;100478.56;;;19.16;60.32
76124;BME280;65173;48.066;20.976;2023-05-07T13:53:20;100511.25;;;19.07;60.79
76124;BME280;65173;48.066;20.976;2023-05-07T13:56:22;100524.28;;;19.02;61.54
76124;BME280;65173;48.066;20.976;2023-05-07T13:59:25;100543.34;;;18.86;60.64
76124;BME280;65173;48.066;20.976;2023-05-07T14:02:28;100544.66;;;18.96;60.72
76124;BME280;65173;48.066;20.976;2023-05-07T14:05:31;100552.00;;;18.99;62.42
76124;BME280;65173;48.066;20.976;2023-05-07T14:08:34;100547.28;;;19.15;62.74
76124;BME280;65173;48.066;20.976;2023-05-07T14:11:37;100542.03;;;19.03;63.41
76124;BME280;65173;48.066;20.976;2023-05-07T14:14:40;100552.03;;;19.25;62.71
76124;BME280;65173;48.066;20.976;2023-05-07T14:17:43;100556.53;;;19.44;61.89
76124;BME280;65173;48.066;20.976;2023-05-07T14:20:46;100536.38;;;20.35;62.16
76124;BME280;65173;48.066;20.976;2023-05-07T14:23:51;100547.19;;;21.23;58.67
76124;BME280;65173;48.066;20.976;2023-05-07T14:26:53;100561.03;;;21.11;59.52
76124;BME280;65173;48.066;20.976;2023-05-07T14:29:56;100558.66;;;21.64;61.22
76124;BME280;65173;48.066;20.976;2023-05-07T14:32:58;100571.69;;;21.37;59.62
76124;BME280;65173;48.066;20.976;2023-05-07T14:36:02;100568.41;;;20.66;57.98
76124;BME280;65173;48.066;20.976;2023-05-07T14:39:05;100556.66;;;20.15;58.74
76124;BME280;65173;48.066;20.976;2023-05-07T14:42:08;100561.78;;;19.90;57.92
76124;BME280;65173;48.066;20.976;2023-05-07T14:45:11;100570.31;;;19.35;58.44
76124;BME280;65173;48.066;20.976;2023-05-07T14:48:14;100576.47;;;18.83;58.77
76124;BME280;65173;48.066;20.976;2023-05-07T14:51:17;100574.88;;;18.36;59.18
76124;BME280;65173;48.066;20.976;2023-05-07T14:54:20;100573.81;;;18.02;59.77
76124;BME280;65173;48.066;20.976;2023-05-07T14:57:23;100578.28;;;17.95;58.79
76124;BME280;65173;48.066;20.976;2023-05-07T15:00:26;100582.69;;;18.03;59.72
76124;BME280;65173;48.066;20.976;2023-05-07T15:03:29;100586.59;;;17.86;58.58
76124;BME280;65173;48.066;20.976;2023-05-07T15:06:32;100601.34;;;17.57;58.65
76124;BME280;65173;48.066;20.976;2023-05-07T15:09:36;100611.34;;;17.57;59.33
76124;BME280;65173;48.066;20.976;2023-05-07T15:12:39;100611.22;;;17.34;58.54
76124;BME280;65173;48.066;20.976;2023-05-07T15:15:42;100609.47;;;17.42;57.56
76124;BME280;65173;48.066;20.976;2023-05-07T15:18:46;100615.63;;;17.42;58.60
76124;BME280;65173;48.066;20.976;2023-05-07T15:21:49;100624.00;;;17.06;58.37
76124;BME280;65173;48.066;20.976;2023-05-07T15:24:52;100628.72;;;17.09;57.90
76124;BME280;65173;48.066;20.976;2023-05-07T15:27:55;100651.47;;;16.80;58.53
76124;BME280;65173;48.066;20.976;2023-05-07T15:30:58;100637.53;;;16.50;59.22
76124;BME280;65173;48.066;20.976;2023-05-07T15:34:01;100642.91;;;16.50;58.70
76124;BME280;65173;48.066;20.976;2023-05-07T15:37:04;100642.44;;;16.60;58.91
76124;BME280;65173;48.066;20.976;2023-05-07T15:40:07;100648.91;;;16.43;58.47
76124;BME280;65173;48.066;20.976;2023-05-07T15:43:11;100655.09;;;16.31;59.06
76124;BME280;65173;48.066;20.976;2023-05-07T15:46:20;100652.84;;;16.33;59.25
76124;BME280;65173;48.066;20.976;2023-05-07T15:49:24;100660.94;;;16.33;58.45
76124;BME280;65173;48.066;20.976;2023-05-07T15:52:27;100658.25;;;15.93;58.81
76124;BME280;65173;48.066;20.976;2023-05-07T15:55:31;100641.88;;;15.98;59.11